Impacts METAR Board
IDs:

KHUM - Houma/Terrebonne Arp, LA, US

Updated at: 1300 UTC 16 Aug 2022
Potential Impact None Slight Moderate High
Time 16/01Z 16/02Z 16/03Z 16/04Z 16/05Z 16/06Z 16/07Z 16/08Z 16/09Z 16/10Z 16/11Z 16/12Z 16/13Z
Temp83 81 80 78 78 76 78 78 78 78 75 77 81
Dewpt72 73 73 75 75 75 75 76 75 76 75 77 79
Altim29.92 29.93 29.94 29.95 29.95 29.94 29.94 29.94 29.95 29.95 29.94 29.95 29.96
VIS 7 10 10 10 7 10 10 10 10 7 7 7
CIG50 46 -- -- -- -- -- -- -- -- -- -- --
CoverBKNBKNCLRCLRCLRCLRCLRCLRCLRCLRCLRCLRCLR
FltCatVFRVFRVFRVFRVFRVFRVFRVFRVFRVFRVFRVFR
WX--------------------------
WDir2402302200002402402300000
WSpd4 3 3 0 0 0 3 3 3 0 0 0 0
WGst-- -- -- -- -- -- -- -- -- -- -- -- --
Raw hourly METARs
KHUM 160055Z AUTO 24004KT BKN050 29/22 A2992 RMK AO2 T02850222 PWINO
KHUM 160155Z AUTO 23003KT 7SM BKN046 27/23 A2993 RMK AO2 T02740225
KHUM 160255Z AUTO 22003KT 10SM CLR 27/23 A2994 RMK AO2 T02660230
KHUM 160355Z AUTO 00000KT 10SM CLR 25/24 A2995 RMK AO2 T02530241
KHUM 160455Z AUTO 00000KT 10SM CLR 25/24 A2995 RMK AO2 T02540238
KHUM 160555Z AUTO 00000KT 7SM CLR 25/24 A2994 RMK AO2 T02460239 10305 20245 403330236
KHUM 160655Z AUTO 24003KT 10SM CLR 26/24 A2994 RMK AO2 T02570241
KHUM 160755Z AUTO 24003KT 10SM CLR 26/24 A2994 RMK AO2 T02550243
KHUM 160855Z AUTO 23003KT 10SM CLR 25/24 A2995 RMK AO2 T02530241
KHUM 160955Z AUTO 00000KT 10SM CLR 26/24 A2995 RMK AO2 T02550243
KHUM 161047Z 00000KT 7SM CLR 24/24 A2994
KHUM 161147Z 00000KT 7SM CLR 25/25 A2995
KHUM 161247Z 00000KT 7SM CLR 27/26 A2996



Page loaded:  13:42 UTC  |   06:42 AM Pacific  |   07:42 AM Mountain  |   08:42 AM Central  |   09:42 AM Eastern

 

ADVISORIES

FORECASTS

FORECASTS

OBSERVATIONS

USER TOOLS

ABOUT US